Time;durP1;ratioP1;P1;durP2;ratioP2;P2;SDS_P1;SDS_P2;PMS_P1;PMS_P2;Temp;Humidity;BMP_temperature;BMP_pressure;BME280_temperature;BME280_humidity;BME280_pressure;Samples;Min_cycle;Max_cycle;Signal;HPM_P1;HPM_P2
2022/10/05 00:01:21;;;;;;;23.98;13.05;;;;;;;29.34;71.04;100947.09;5012711;28;70797;-40
2022/10/05 00:04:01;;;;;;;25.40;17.17;;;;;;;29.20;71.51;100929.22;5018513;28;67024;-40
2022/10/05 00:06:33;;;;;;;23.45;15.73;;;;;;;29.39;69.61;100959.94;5022119;28;70788;-40
2022/10/05 00:09:21;;;;;;;22.70;14.20;;;;;;;29.21;71.27;100947.09;5021094;28;66468;-40
2022/10/05 00:11:53;;;;;;;21.23;12.13;;;;;;;29.38;69.66;100969.94;5021310;28;70244;-41
2022/10/05 00:14:30;;;;;;;20.05;11.52;;;;;;;29.32;70.50;100969.94;5020800;28;66830;-39
2022/10/05 00:17:04;;;;;;;20.08;10.77;;;;;;;29.24;69.99;100962.88;5020889;28;70812;-39
2022/10/05 00:19:38;;;;;;;19.45;10.93;;;;;;;29.40;70.44;100983.25;5020465;28;67166;-39
2022/10/05 00:22:15;;;;;;;24.65;11.38;;;;;;;29.12;70.54;100934.81;5017325;28;71040;-39
2022/10/05 00:24:50;;;;;;;27.30;12.30;;;;;;;28.88;70.68;100899.25;5017739;28;66501;-40
2022/10/05 00:27:25;;;;;;;18.90;11.85;;;;;;;29.43;70.04;100993.66;5015304;28;70288;-39
2022/10/05 00:29:59;;;;;;;24.38;11.30;;;;;;;29.45;70.08;100990.72;5003504;28;67119;-40
2022/10/05 00:32:31;;;;;;;14.38;10.52;;;;;;;29.46;70.64;100992.41;5014452;28;70780;-40
2022/10/05 00:35:02;;;;;;;16.77;11.43;;;;;;;29.48;70.74;100993.84;5002834;28;65963;-39
2022/10/05 00:37:35;;;;;;;21.83;11.57;;;;;;;29.55;70.42;101001.94;5019386;28;70933;-41
2022/10/05 00:40:29;;;;;;;;;;;;;;;29.31;70.10;101001.53;5015482;28;67035;-39
2022/10/05 00:43:24;;;;;;;14.30;9.77;;;;;;;29.07;66.87;100924.63;5001504;28;70008;-40
2022/10/05 00:46:07;;;;;;;11.38;9.23;;;;;;;29.50;65.82;100967.44;5016821;28;66675;-39
2022/10/05 00:48:45;;;;;;;9.88;8.55;;;;;;;29.83;65.94;101005.28;5019419;28;70139;-39
2022/10/05 00:51:30;;;;;;;12.02;9.50;;;;;;;29.84;65.68;101006.13;5011444;28;67061;-39
2022/10/05 00:54:09;;;;;;;12.88;9.18;;;;;;;29.92;65.26;101010.47;5002085;28;70837;-40
2022/10/05 00:57:09;;;;;;;9.75;8.85;;;;;;;29.83;65.47;101015.28;5003662;28;66534;-39
2022/10/05 00:59:40;;;;;;;13.70;9.32;;;;;;;29.98;65.36;101028.59;5012992;28;70225;-40
2022/10/05 01:02:23;;;;;;;14.48;9.80;;;;;;;29.89;65.12;101027.13;5013111;28;66489;-40
2022/10/05 01:05:32;;;;;;;12.88;8.60;;;;;;;30.01;65.09;101036.28;4997261;28;71182;-39
2022/10/05 01:08:30;;;;;;;11.60;9.35;;;;;;;30.02;64.46;101040.63;4996820;28;66205;-40
2022/10/05 01:11:28;;;;;;;8.98;8.25;;;;;;;29.68;64.82;101001.97;5014552;28;70953;-40
2022/10/05 01:13:59;;;;;;;10.05;8.75;;;;;;;30.08;64.69;101039.78;5007708;28;66932;-40
2022/10/05 01:17:00;;;;;;;10.82;9.25;;;;;;;29.97;64.76;101053.94;5020263;28;70359;-39
2022/10/05 01:20:08;;;;;;;12.70;9.20;;;;;;;29.55;64.29;100985.72;4992044;28;66695;-39
2022/10/05 01:23:04;;;;;;;12.57;8.55;;;;;;;30.15;64.69;101058.72;5020760;28;71118;-40
2022/10/05 01:26:03;;;;;;;11.52;8.73;;;;;;;30.18;64.63;101056.41;5017906;28;66832;-40
2022/10/05 01:28:52;;;;;;;9.68;8.75;;;;;;;30.20;64.21;101062.47;5018969;28;70216;-40
2022/10/05 01:31:32;;;;;;;11.20;9.32;;;;;;;29.65;64.33;100964.56;5018866;28;66688;-39
2022/10/05 01:34:23;;;;;;;10.93;9.10;;;;;;;30.25;63.92;101064.53;5020924;28;70782;-40
2022/10/05 01:37:22;;;;;;;10.18;8.02;;;;;;;30.26;64.09;101066.22;5001915;28;66776;-40
2022/10/05 01:40:12;;;;;;;9.23;8.23;;;;;;;29.91;64.39;101027.75;4991273;28;70500;-40
2022/10/05 01:42:48;;;;;;;9.13;8.20;;;;;;;30.34;64.23;101073.25;5019117;28;66201;-40
2022/10/05 01:45:21;;;;;;;13.05;7.80;;;;;;;30.36;63.96;101063.06;5021245;28;69762;-39
2022/10/05 01:48:21;;;;;;;11.02;8.52;;;;;;;29.91;63.86;100998.81;5021438;28;65999;-40
2022/10/05 01:51:02;;;;;;;9.18;8.30;;;;;;;30.23;63.52;101055.81;4999837;28;70131;-39
2022/10/05 01:53:35;;;;;;;8.60;7.85;;;;;;;30.41;64.08;101069.50;5013474;28;65537;-39
2022/10/05 01:56:19;;;;;;;8.95;8.00;;;;;;;29.91;63.53;100990.72;5013286;28;70488;-40
2022/10/05 01:59:06;;;;;;;9.43;7.88;;;;;;;29.89;63.73;100991.97;5015431;28;65735;-39
2022/10/05 02:01:54;;;;;;;9.40;7.93;;;;;;;30.47;63.84;101076.75;5015399;28;69912;-39
2022/10/05 02:04:34;;;;;;;8.85;8.02;;;;;;;30.50;63.28;101083.63;5019415;28;66378;-39
2022/10/05 02:07:31;;;;;;;8.88;8.02;;;;;;;30.13;63.34;101004.81;5012236;28;70192;-39
2022/10/05 02:10:08;;;;;;;8.68;7.88;;;;;;;29.93;63.66;100966.16;5016969;28;66590;-40
2022/10/05 02:12:40;;;;;;;8.68;7.38;;;;;;;30.57;63.39;101065.50;5018331;28;69664;-40
2022/10/05 02:15:20;;;;;;;9.88;8.23;;;;;;;30.06;63.07;100982.34;5003001;28;66021;-41
2022/10/05 02:18:02;;;;;;;8.00;7.38;;;;;;;30.18;63.47;100991.47;5003314;28;69379;-39
2022/10/05 02:20:37;;;;;;;8.43;7.53;;;;;;;30.61;63.15;101061.31;4997940;28;66514;-40
2022/10/05 02:23:22;;;;;;;7.75;7.15;;;;;;;30.50;63.57;101032.19;5001624;28;70061;-41
2022/10/05 02:25:54;;;;;;;7.75;7.10;;;;;;;30.66;63.42;101050.66;4993895;28;65102;-39
2022/10/05 02:28:45;;;;;;;;;;;;;;;30.30;64.26;101045.78;5003054;28;69581;-39
2022/10/05 02:31:58;;;;;;;8.95;7.65;;;;;;;30.05;63.34;100953.66;4988514;28;66085;-39
2022/10/05 02:34:35;;;;;;;8.23;7.63;;;;;;;30.66;63.24;101034.41;4995951;28;68627;-40
2022/10/05 02:37:25;;;;;;;8.13;7.30;;;;;;;30.72;63.11;101035.44;5021679;28;66514;-41
2022/10/05 02:40:23;;;;;;;7.32;6.68;;;;;;;29.84;63.28;100893.38;5015165;28;70293;-40
2022/10/05 02:43:20;;;;;;;7.65;7.13;;;;;;;30.24;63.06;100955.47;5010135;28;66105;-39
2022/10/05 02:46:00;;;;;;;7.50;6.90;;;;;;;30.80;62.85;101031.69;5002268;28;69868;-40
2022/10/05 02:48:55;;;;;;;7.63;7.03;;;;;;;30.85;62.58;101031.88;5017730;28;65155;-39
2022/10/05 02:51:35;;;;;;;7.53;6.85;;;;;;;30.87;62.59;101027.03;4995244;28;70354;-40
2022/10/05 02:54:37;;;;;;;7.07;6.28;;;;;;;30.92;62.33;101029.94;5014957;28;66542;-39
2022/10/05 02:57:10;;;;;;;;;;;;;;;30.56;63.44;101031.31;4979494;28;68835;-39
2022/10/05 03:00:12;;;;;;;7.70;7.00;;;;;;;30.86;62.70;101009.16;5003953;28;66592;-40
2022/10/05 03:02:48;;;;;;;6.80;6.32;;;;;;;30.94;62.39;101019.72;5001035;28;69806;-41
2022/10/05 03:05:33;;;;;;;7.50;6.90;;;;;;;30.46;62.29;100938.94;4992135;28;65906;-40
2022/10/05 03:08:13;;;;;;;7.10;6.45;;;;;;;30.56;62.35;100939.28;5009665;28;69516;-40
2022/10/05 03:10:54;;;;;;;8.13;7.53;;;;;;;31.01;62.81;101017.81;5016031;28;65620;-41
2022/10/05 03:13:44;;;;;;;8.02;6.68;;;;;;;30.97;62.49;101021.16;5010611;28;70665;-40
2022/10/05 03:16:37;;;;;;;7.60;6.95;;;;;;;31.00;62.92;101021.56;4994552;28;67911;-39
2022/10/05 03:19:17;;;;;;;7.00;6.40;;;;;;;31.11;62.22;101018.16;5005453;28;70223;-40
2022/10/05 03:22:00;;;;;;;7.13;6.63;;;;;;;31.10;62.57;101018.38;5004395;28;66315;-40
2022/10/05 03:24:50;;;;;;;6.65;6.25;;;;;;;30.64;62.60;100941.75;4998708;28;70064;-40
2022/10/05 03:27:54;;;;;;;6.85;6.25;;;;;;;31.11;62.39;101015.44;5010537;28;66215;-41
2022/10/05 03:30:33;;;;;;;6.50;5.90;;;;;;;31.19;62.24;101014.34;4983172;28;70094;-40
2022/10/05 03:33:32;;;;;;;6.93;6.38;;;;;;;30.66;62.83;100915.28;5019421;28;65282;-40
2022/10/05 03:36:12;;;;;;;6.50;5.95;;;;;;;31.24;62.52;101003.69;5004866;28;69753;-40
2022/10/05 03:38:54;;;;;;;6.45;5.93;;;;;;;30.79;62.36;100930.63;5003709;28;66542;-41
2022/10/05 03:42:24;;;;;;;6.90;6.10;;;;;;;31.16;62.73;100990.41;5021174;28;69758;-40
2022/10/05 03:45:24;;;;;;;6.25;5.85;;;;;;;31.22;62.74;100996.81;5016085;28;65456;-40
2022/10/05 03:48:10;;;;;;;7.50;5.95;;;;;;;31.16;62.87;100993.94;5020583;28;70073;-40
2022/10/05 03:51:00;;;;;;;6.43;5.97;;;;;;;31.31;62.43;100977.34;4982406;28;64305;-40
2022/10/05 03:53:56;;;;;;;6.68;6.18;;;;;;;30.73;63.12;100902.53;5004594;28;70172;-40
2022/10/05 03:56:29;;;;;;;6.30;5.80;;;;;;;31.35;62.51;100972.34;5022499;28;66153;-40
2022/10/05 03:59:03;;;;;;;6.53;5.93;;;;;;;31.39;62.55;100970.88;5020418;28;69791;-40
2022/10/05 04:01:42;;;;;;;6.18;5.70;;;;;;;31.15;62.21;100913.72;5021155;28;66317;-40
2022/10/05 04:04:22;;;;;;;6.38;5.97;;;;;;;31.01;62.47;100881.50;5002817;28;69916;-41
2022/10/05 04:06:55;;;;;;;5.53;5.13;;;;;;;31.19;62.35;100897.84;4981854;28;66454;-40
2022/10/05 04:09:35;;;;;;;6.07;5.55;;;;;;;30.99;62.18;100862.78;5017918;28;69678;-40
2022/10/05 04:12:11;;;;;;;6.60;6.00;;;;;;;31.46;62.27;100928.28;5014266;28;65199;-40
2022/10/05 04:15:00;;;;;;;5.60;5.20;;;;;;;31.42;62.51;100927.03;5011924;28;69164;-40
2022/10/05 04:17:36;;;;;;;6.18;5.68;;;;;;;31.52;62.20;100938.22;5011171;28;66462;-40
2022/10/05 04:20:24;;;;;;;6.03;5.53;;;;;;;31.54;61.90;100919.84;5018128;28;70192;-40
2022/10/05 04:22:55;;;;;;;6.38;5.57;;;;;;;31.55;62.14;100915.25;4991946;28;66004;-40
2022/10/05 04:25:41;;;;;;;6.72;5.93;;;;;;;31.47;62.36;100905.53;5019067;28;69884;-41
2022/10/05 04:28:40;;;;;;;6.50;5.50;;;;;;;31.56;62.24;100901.44;5019028;28;65797;-40
2022/10/05 04:31:21;;;;;;;6.13;5.50;;;;;;;31.16;62.21;100817.00;5019559;28;70488;-40
2022/10/05 04:34:04;;;;;;;7.13;5.63;;;;;;;31.51;62.00;100870.66;5002669;28;65682;-41
2022/10/05 04:36:45;;;;;;;5.30;4.93;;;;;;;31.67;62.12;100886.31;5018314;28;70114;-40
2022/10/05 04:39:16;;;;;;;5.70;5.20;;;;;;;31.72;61.61;100893.78;5003262;28;65840;-40
2022/10/05 04:42:11;;;;;;;5.28;4.88;;;;;;;31.73;62.20;100898.16;5020499;28;70125;-40
2022/10/05 04:44:52;;;;;;;5.82;5.43;;;;;;;31.76;62.08;100885.00;5020328;28;66162;-40
2022/10/05 04:47:57;;;;;;;9.27;5.35;;;;;;;31.23;61.93;100803.34;5007726;28;69690;-41
2022/10/05 04:50:49;;;;;;;5.13;4.72;;;;;;;31.79;61.74;100878.28;5002721;28;66193;-40
2022/10/05 04:53:41;;;;;;;5.68;5.18;;;;;;;31.82;61.70;100869.69;5016340;28;70327;-40
2022/10/05 04:56:19;;;;;;;4.47;4.17;;;;;;;31.83;61.58;100866.72;4994815;28;65418;-40
2022/10/05 04:59:08;;;;;;;6.72;4.70;;;;;;;31.79;61.60;100867.44;5006855;28;69761;-39
2022/10/05 05:01:48;;;;;;;4.85;4.38;;;;;;;31.87;61.85;100885.25;4995010;28;66309;-41
2022/10/05 05:04:40;;;;;;;4.78;4.38;;;;;;;31.84;61.44;100870.28;4995294;28;70086;-40
2022/10/05 05:07:22;;;;;;;4.65;4.25;;;;;;;31.93;61.35;100868.97;4994166;28;66060;-40
2022/10/05 05:10:04;;;;;;;4.60;4.28;;;;;;;31.80;61.21;100863.66;5016603;28;69757;-40
2022/10/05 05:12:50;;;;;;;5.03;4.43;;;;;;;31.96;60.90;100879.34;5020515;28;65755;-40
2022/10/05 05:15:32;;;;;;;6.90;4.05;;;;;;;31.98;61.28;100850.13;5021450;28;69793;-40
2022/10/05 05:18:38;;;;;;;14.07;4.45;;;;;;;31.81;61.72;100827.34;5011943;28;66743;-40
2022/10/05 05:21:40;;;;;;;11.25;4.60;;;;;;;31.91;61.42;100837.66;5010707;28;69965;-41
2022/10/05 05:24:39;;;;;;;4.95;3.67;;;;;;;32.00;61.51;100837.13;4988403;28;66262;-41
2022/10/05 05:27:41;;;;;;;11.27;4.50;;;;;;;31.90;61.78;100831.41;4976192;28;70122;-40
2022/10/05 05:30:14;;;;;;;7.15;3.63;;;;;;;32.03;61.07;100825.81;4983442;28;66315;-40
2022/10/05 05:33:03;;;;;;;8.55;3.67;;;;;;;32.07;61.33;100819.91;5019357;28;69764;-40
2022/10/05 05:35:54;;;;;;;4.45;4.07;;;;;;;32.04;61.47;100804.97;5012667;28;66591;-40
2022/10/05 05:38:34;;;;;;;4.10;3.70;;;;;;;31.97;61.35;100788.75;5013042;28;69588;-39
2022/10/05 05:41:10;;;;;;;8.10;3.53;;;;;;;32.08;61.07;100794.47;5002772;28;66508;-40
2022/10/05 05:44:02;;;;;;;6.82;3.45;;;;;;;31.98;61.68;100785.00;5000743;28;70385;-40
2022/10/05 05:46:39;;;;;;;5.00;3.60;;;;;;;31.50;61.18;100690.91;4994769;28;66177;-40
2022/10/05 05:49:44;;;;;;;3.92;3.63;;;;;;;32.06;61.27;100781.13;4996195;28;70875;-40
2022/10/05 05:52:32;;;;;;;5.72;3.83;;;;;;;32.01;61.56;100773.69;5012276;28;43283;-40
2022/10/05 05:55:19;;;;;;;4.55;3.78;;;;;;;31.97;61.55;100764.34;5019070;28;69199;-39
2022/10/05 05:58:19;;;;;;;3.78;3.47;;;;;;;31.96;61.52;100754.56;5014310;28;65519;-40
2022/10/05 06:01:05;;;;;;;4.30;3.58;;;;;;;31.97;61.30;100750.78;5018596;28;70338;-39
2022/10/05 06:04:15;;;;;;;4.30;3.90;;;;;;;31.67;61.37;100674.81;5005777;28;66476;-40
2022/10/05 06:06:53;;;;;;;6.20;3.50;;;;;;;31.67;61.38;100665.84;5000715;28;70196;-41
2022/10/05 06:09:38;;;;;;;5.45;3.55;;;;;;;32.08;61.50;100721.19;5019554;28;66546;-41
2022/10/05 06:12:33;;;;;;;;;;;;;;;31.73;62.28;100716.44;5013044;28;69824;-40
2022/10/05 06:15:28;;;;;;;4.47;4.05;;;;;;;31.94;61.73;100718.69;5017358;28;66677;-40
2022/10/05 06:18:08;;;;;;;7.25;3.28;;;;;;;32.01;61.64;100713.16;5019585;28;70159;-41
2022/10/05 06:20:48;;;;;;;4.45;3.65;;;;;;;32.07;61.33;100695.97;4994741;28;66531;-40
2022/10/05 06:23:27;;;;;;;6.00;3.78;;;;;;;32.03;61.63;100690.16;5017593;28;71228;-40
2022/10/05 06:26:04;;;;;;;4.22;3.83;;;;;;;32.08;61.12;100685.94;5002430;28;66172;-39
2022/10/05 06:28:42;;;;;;;5.90;3.70;;;;;;;32.10;61.69;100683.81;5012197;28;70679;-40
2022/10/05 06:31:22;;;;;;;7.53;3.70;;;;;;;32.10;61.38;100678.38;5006041;28;66200;-40
2022/10/05 06:34:26;;;;;;;12.00;4.10;;;;;;;31.62;61.72;100609.59;5002511;28;70224;-40
2022/10/05 06:37:06;;;;;;;15.27;4.40;;;;;;;32.03;61.53;100657.59;5021047;28;65525;-39
2022/10/05 06:39:54;;;;;;;7.55;4.05;;;;;;;32.05;61.62;100660.09;5000836;28;70356;-39
2022/10/05 06:42:54;;;;;;;12.80;3.33;;;;;;;32.15;61.44;100645.94;5001654;28;65786;-41
2022/10/05 06:46:01;;;;;;;7.22;3.50;;;;;;;31.81;61.85;100610.34;5001611;28;70266;-40
2022/10/05 06:49:13;;;;;;;9.63;3.95;;;;;;;32.03;61.70;100640.50;5020444;28;66452;-40
2022/10/05 06:52:12;;;;;;;18.73;3.55;;;;;;;32.18;61.45;100637.31;5013918;28;69714;-40
2022/10/05 06:54:53;;;;;;;7.60;3.97;;;;;;;32.17;61.47;100630.25;5015141;28;65522;-40
2022/10/05 06:57:54;;;;;;;12.00;3.75;;;;;;;32.15;61.66;100621.50;5018729;28;70178;-40
2022/10/05 07:00:48;;;;;;;11.88;3.97;;;;;;;31.78;61.49;100551.16;5014928;28;65292;-40
2022/10/05 07:03:30;;;;;;;7.88;4.30;;;;;;;32.26;61.50;100624.25;5018849;28;70644;-40
2022/10/05 07:06:18;;;;;;;8.13;3.97;;;;;;;32.32;61.49;100617.03;5004990;28;65342;-41
2022/10/05 07:09:06;;;;;;;4.90;3.80;;;;;;;32.34;61.37;100609.47;5023537;28;70167;-41
2022/10/05 07:11:53;;;;;;;9.10;3.30;;;;;;;32.37;61.20;100606.28;5004222;28;65619;-41
2022/10/05 07:15:12;;;;;;;7.68;3.30;;;;;;;32.27;61.69;100597.91;5004976;28;70228;-40
2022/10/05 07:17:59;;;;;;;7.97;3.50;;;;;;;32.40;61.30;100603.13;5002479;28;65383;-40
2022/10/05 07:20:43;;;;;;;7.45;3.80;;;;;;;32.42;61.38;100606.41;5005904;28;70149;-40
2022/10/05 07:24:04;;;;;;;15.23;3.70;;;;;;;32.37;61.75;100602.75;5019504;28;65066;-40
2022/10/05 07:27:00;;;;;;;12.35;3.78;;;;;;;32.47;61.11;100592.97;4978339;28;69133;-40
2022/10/05 07:29:41;;;;;;;8.35;3.33;;;;;;;32.49;61.39;100580.00;4995259;28;66297;-40
2022/10/05 07:32:15;;;;;;;5.93;3.30;;;;;;;32.50;61.35;100575.38;5021085;28;69551;-40
2022/10/05 07:34:53;;;;;;;8.57;3.03;;;;;;;32.11;61.63;100506.38;4998837;28;66627;-40
2022/10/05 07:37:56;;;;;;;6.93;3.22;;;;;;;32.44;61.89;100571.69;5003157;28;70349;-40
2022/10/05 07:40:54;;;;;;;22.70;3.47;;;;;;;32.30;61.73;100548.59;4999462;28;66388;-40
2022/10/05 07:43:48;;;;;;;11.77;3.10;;;;;;;32.56;61.39;100568.16;5008499;28;69495;-40
2022/10/05 07:46:59;;;;;;;21.13;3.78;;;;;;;32.53;61.53;100579.50;5016112;28;66688;-40
2022/10/05 07:49:54;;;;;;;47.08;4.85;;;;;;;31.60;61.70;100447.16;5022047;28;70428;-40
2022/10/05 07:52:47;;;;;;;42.33;4.43;;;;;;;32.54;61.55;100589.28;5020798;28;66428;-40
2022/10/05 07:55:49;;;;;;;54.97;4.82;;;;;;;32.47;61.47;100609.25;4978047;28;69778;-40
2022/10/05 07:58:24;;;;;;;26.98;4.22;;;;;;;32.58;61.28;100614.94;5002686;28;66611;-39
2022/10/05 08:01:18;;;;;;;19.10;4.07;;;;;;;32.49;61.09;100623.44;5006067;28;69585;-39
2022/10/05 08:04:11;;;;;;;16.65;4.03;;;;;;;32.60;61.14;100623.66;4990007;28;66268;-39
2022/10/05 08:07:05;;;;;;;24.13;4.20;;;;;;;32.60;61.02;100631.81;5016145;28;70287;-40
2022/10/05 08:09:54;;;;;;;15.15;3.70;;;;;;;32.62;60.93;100621.50;5018386;28;65942;-40
2022/10/05 08:13:02;;;;;;;21.42;3.25;;;;;;;31.99;60.87;100542.47;5008234;28;70182;-40
2022/10/05 08:15:47;;;;;;;22.05;3.33;;;;;;;32.24;61.04;100563.94;5008191;28;66031;-40
2022/10/05 08:18:41;;;;;;;23.20;3.65;;;;;;;32.63;60.73;100623.19;5011566;28;70078;-40
2022/10/05 08:21:15;;;;;;;9.50;3.33;;;;;;;32.65;60.74;100621.03;5017304;28;65364;-40
2022/10/05 08:23:59;;;;;;;20.15;3.95;;;;;;;32.12;60.67;100535.16;5021797;28;70325;-40
2022/10/05 08:26:38;;;;;;;20.98;3.60;;;;;;;32.65;60.69;100610.16;5009261;28;66553;-40
2022/10/05 08:29:46;;;;;;;13.57;3.03;;;;;;;32.58;60.90;100595.91;5021551;28;69942;-40
2022/10/05 08:32:31;;;;;;;13.10;3.25;;;;;;;32.55;60.85;100594.50;5020658;28;66080;-40
2022/10/05 08:35:21;;;;;;;15.23;3.13;;;;;;;32.49;60.82;100601.72;5011215;28;70453;-40
2022/10/05 08:37:53;;;;;;;25.15;3.65;;;;;;;32.65;60.90;100591.16;5022945;28;64237;-40
2022/10/05 08:40:35;;;;;;;16.70;3.00;;;;;;;32.59;60.80;100594.84;5000791;28;69998;-40
2022/10/05 08:43:30;;;;;;;10.52;2.67;;;;;;;32.57;61.13;100596.97;4994811;28;65269;-41
2022/10/05 08:46:12;;;;;;;13.52;2.72;;;;;;;32.65;60.86;100600.16;4991228;28;71046;-40
2022/10/05 08:49:11;;;;;;;20.13;3.90;;;;;;;32.20;60.88;100534.78;4992517;28;66287;-41
2022/10/05 08:52:14;;;;;;;15.32;3.03;;;;;;;32.57;60.79;100591.53;4998590;28;68969;-40
2022/10/05 08:55:03;;;;;;;15.30;2.50;;;;;;;32.62;60.71;100599.78;4991743;28;66287;-40
2022/10/05 08:57:48;;;;;;;9.60;2.70;;;;;;;32.11;60.78;100517.22;5000122;28;69776;-41
2022/10/05 09:00:24;;;;;;;9.90;2.55;;;;;;;32.21;60.86;100525.59;4997715;28;65590;-39
2022/10/05 09:03:18;;;;;;;11.82;2.67;;;;;;;32.55;60.97;100594.50;4994567;28;69860;-39
2022/10/05 09:06:19;;;;;;;14.00;2.83;;;;;;;32.42;61.17;100590.09;5001334;28;66658;-40
2022/10/05 09:09:11;;;;;;;14.68;2.88;;;;;;;32.47;61.16;100590.25;4999304;28;68758;-40
2022/10/05 09:12:06;;;;;;;26.27;3.30;;;;;;;32.49;61.07;100596.28;5000350;28;65801;-40
2022/10/05 09:14:51;;;;;;;17.77;2.92;;;;;;;32.60;60.84;100582.94;4985039;28;69969;-41
2022/10/05 09:18:02;;;;;;;17.17;3.25;;;;;;;32.52;61.21;100599.59;4996643;28;65908;-40
2022/10/05 09:20:52;;;;;;;;;;;;;;;32.26;61.95;100596.25;5001926;28;70159;-40
2022/10/05 09:23:37;;;;;;;13.30;3.17;;;;;;;32.52;61.15;100583.31;4997875;28;66117;-40
2022/10/05 09:26:29;;;;;;;19.42;2.88;;;;;;;32.47;61.37;100592.97;5000996;28;69233;-41
2022/10/05 09:29:32;;;;;;;12.63;2.50;;;;;;;31.93;61.29;100510.88;5000219;28;66606;-41
2022/10/05 09:32:18;;;;;;;17.67;3.03;;;;;;;32.49;61.57;100596.28;4995396;28;70447;-40
2022/10/05 09:35:15;;;;;;;20.67;3.67;;;;;;;32.49;61.06;100612.56;4983759;28;65591;-40
2022/10/05 09:37:57;;;;;;;10.20;2.53;;;;;;;32.56;61.18;100611.63;4988547;28;70470;-40
2022/10/05 09:40:27;;;;;;;22.70;3.28;;;;;;;32.55;61.31;100628.97;5008841;28;65401;-40
2022/10/05 09:43:34;;;;;;;18.00;3.35;;;;;;;32.44;61.30;100636.03;5002548;28;69650;-40
2022/10/05 09:46:20;;;;;;;12.57;2.58;;;;;;;32.15;61.48;100600.66;5003504;28;66098;-40
2022/10/05 09:49:15;;;;;;;9.00;3.10;;;;;;;32.45;61.70;100675.69;5016640;28;70686;-40
2022/10/05 09:51:58;;;;;;;14.68;3.25;;;;;;;32.54;61.43;100685.19;5016251;28;66697;-40
2022/10/05 09:54:50;;;;;;;10.48;2.38;;;;;;;32.55;61.16;100707.72;5018062;28;69334;-41
2022/10/05 09:57:56;;;;;;;7.83;2.60;;;;;;;32.42;61.54;100709.56;5015427;28;66082;-39
2022/10/05 10:00:50;;;;;;;11.27;2.45;;;;;;;32.53;61.70;100709.84;5015345;28;69547;-40
2022/10/05 10:04:14;;;;;;;13.10;2.63;;;;;;;32.40;61.69;100717.13;4990063;28;66479;-40
2022/10/05 10:07:12;;;;;;;10.48;2.72;;;;;;;32.38;61.60;100700.25;5015661;28;69782;-40
2022/10/05 10:10:20;;;;;;;7.43;2.50;;;;;;;32.39;61.76;100709.22;5015142;28;66385;-40
2022/10/05 10:13:11;;;;;;;10.07;2.83;;;;;;;32.48;61.58;100702.38;5006034;28;70237;-41
2022/10/05 10:15:44;;;;;;;;;;;;;;;32.13;62.64;100707.78;5012641;28;66626;-40
2022/10/05 10:18:36;;;;;;;9.27;2.95;;;;;;;32.43;61.74;100721.25;5013473;28;70614;-41
2022/10/05 10:21:25;;;;;;;8.40;2.80;;;;;;;32.18;61.87;100713.28;5014986;28;66601;-40
2022/10/05 10:24:26;;;;;;;8.00;2.58;;;;;;;32.32;62.02;100731.06;5007558;28;69530;-40
2022/10/05 10:27:31;;;;;;;5.90;2.35;;;;;;;32.31;62.32;100732.09;5014525;28;66184;-40
2022/10/05 10:30:17;;;;;;;6.28;2.72;;;;;;;31.91;61.95;100673.03;5012274;28;70263;-41
2022/10/05 10:33:21;;;;;;;6.15;2.50;;;;;;;32.32;62.10;100774.47;5012248;28;65173;-39
2022/10/05 10:36:00;;;;;;;5.13;2.15;;;;;;;32.39;61.85;100775.19;5013890;28;69703;-41
2022/10/05 10:38:41;;;;;;;7.78;2.63;;;;;;;32.38;61.93;100778.16;5018001;28;66624;-41
2022/10/05 10:41:32;;;;;;;5.80;2.40;;;;;;;32.30;62.18;100760.31;5008841;28;70880;-40
2022/10/05 10:44:32;;;;;;;4.68;2.40;;;;;;;31.92;62.38;100719.97;5018867;28;64786;-40
2022/10/05 10:47:23;;;;;;;4.75;2.30;;;;;;;32.29;61.98;100764.09;5015994;28;70359;-40
2022/10/05 10:50:11;;;;;;;4.57;2.47;;;;;;;32.29;62.43;100780.38;5012436;28;66466;-39
2022/10/05 10:53:01;;;;;;;7.30;3.10;;;;;;;32.03;64.23;100776.16;5011850;28;68627;-40
2022/10/05 10:55:56;;;;;;;4.47;3.65;;;;;;;32.18;64.59;100778.44;5011760;28;65561;-41
2022/10/05 10:58:57;;;;;;;10.48;3.83;;;;;;;32.05;65.86;100783.00;5017967;28;69738;-41
2022/10/05 11:01:37;;;;;;;6.82;3.90;;;;;;;32.15;64.68;100782.47;5018291;28;64579;-40
2022/10/05 11:04:25;;;;;;;7.10;3.38;;;;;;;32.07;65.89;100782.78;5018736;28;70708;-40
2022/10/05 11:07:06;;;;;;;4.30;2.92;;;;;;;32.05;66.19;100793.84;5016996;28;65776;-40
2022/10/05 11:10:01;;;;;;;5.78;3.42;;;;;;;31.98;67.50;100795.00;5015648;28;70125;-40
2022/10/05 11:12:50;;;;;;;9.48;3.55;;;;;;;32.12;66.02;100801.91;5019089;28;65767;-44
2022/10/05 11:15:42;;;;;;;10.13;3.28;;;;;;;32.02;67.06;100807.88;5020320;28;70266;-40
2022/10/05 11:18:18;;;;;;;5.43;3.53;;;;;;;32.15;66.57;100822.31;5018620;28;67140;-41
2022/10/05 11:20:59;;;;;;;8.90;2.85;;;;;;;31.88;66.19;100803.69;5018374;28;70322;-41
2022/10/05 11:23:46;;;;;;;4.32;2.92;;;;;;;32.08;66.45;100836.00;5018587;28;66182;-41
2022/10/05 11:26:35;;;;;;;5.80;3.72;;;;;;;32.11;66.45;100837.41;5008316;28;69761;-40
2022/10/05 11:29:40;;;;;;;7.03;3.90;;;;;;;32.09;66.59;100844.94;5009338;28;66143;-41
2022/10/05 11:32:35;;;;;;;5.13;3.45;;;;;;;32.16;65.91;100840.28;4987038;28;70153;-40
2022/10/05 11:35:38;;;;;;;8.55;3.92;;;;;;;31.92;66.41;100832.00;5009688;28;66458;-40
2022/10/05 11:38:15;;;;;;;7.57;4.07;;;;;;;32.14;65.98;100853.25;5013154;28;70560;-40
2022/10/05 11:41:09;;;;;;;6.07;3.90;;;;;;;32.16;66.01;100859.28;5014197;28;65032;-41
2022/10/05 11:44:00;;;;;;;6.13;3.67;;;;;;;32.16;65.40;100862.81;5016823;28;70195;-41
2022/10/05 11:46:54;;;;;;;3.92;3.63;;;;;;;31.94;66.21;100838.06;5011344;28;66345;-41
2022/10/05 11:49:41;;;;;;;8.65;4.22;;;;;;;32.00;65.87;100847.97;5013821;28;68451;-40
2022/10/05 11:52:32;;;;;;;10.77;3.72;;;;;;;32.06;66.20;100876.09;5014595;28;65407;-41
2022/10/05 11:55:29;;;;;;;5.28;3.53;;;;;;;31.97;65.67;100863.91;5016991;28;70200;-40
2022/10/05 11:58:22;;;;;;;7.68;3.35;;;;;;;31.54;65.76;100794.31;5019196;28;65707;-40
2022/10/05 12:00:58;;;;;;;9.43;3.92;;;;;;;32.16;65.64;100895.38;5019772;28;69146;-40
2022/10/05 12:03:43;;;;;;;5.28;4.38;;;;;;;32.17;65.79;100901.63;5022040;28;66778;-40
2022/10/05 12:06:22;;;;;;;7.47;4.50;;;;;;;32.08;67.32;100900.28;5024978;28;69440;-40
2022/10/05 12:08:55;;;;;;;12.35;4.35;;;;;;;32.13;66.46;100900.44;5019898;28;65802;-40
2022/10/05 12:11:37;;;;;;;6.82;4.13;;;;;;;31.75;66.57;100901.47;5020477;28;69932;-40
2022/10/05 12:14:38;;;;;;;5.70;3.95;;;;;;;31.40;66.04;100907.47;5021234;28;66266;-41
2022/10/05 12:17:37;;;;;;;8.75;4.00;;;;;;;31.26;64.77;100906.75;5013392;28;70167;-40
2022/10/05 12:20:18;;;;;;;4.25;3.40;;;;;;;31.15;63.81;100900.16;5005230;28;65708;-40
2022/10/05 12:23:39;;;;;;;4.05;3.22;;;;;;;30.97;63.58;100912.81;5010290;28;69638;-39
2022/10/05 12:26:21;;;;;;;4.93;3.45;;;;;;;30.84;62.47;100908.31;5005030;28;66229;-41
2022/10/05 12:29:31;;;;;;;3.88;3.42;;;;;;;30.38;61.44;100849.88;5021518;28;69434;-40
2022/10/05 12:32:24;;;;;;;6.53;3.35;;;;;;;30.83;60.70;100914.78;5017578;28;66118;-42
2022/10/05 12:35:15;;;;;;;3.85;2.83;;;;;;;30.82;61.65;100921.28;5021270;28;69708;-40
2022/10/05 12:38:11;;;;;;;17.35;3.80;;;;;;;29.88;61.73;100784.78;5012068;28;66777;-39
2022/10/05 12:40:51;;;;;;;3.78;3.00;;;;;;;30.73;60.94;100939.63;5014025;28;69997;-40
2022/10/05 12:44:17;;;;;;;3.80;3.45;;;;;;;30.58;60.04;100939.91;5021843;28;66070;-40
2022/10/05 12:47:13;;;;;;;3.40;3.13;;;;;;;30.11;58.97;100855.41;5008875;28;70287;-41
2022/10/05 12:50:19;;;;;;;6.30;3.05;;;;;;;30.46;58.48;100928.94;4968541;28;65954;-41
2022/10/05 12:53:22;;;;;;;3.20;2.97;;;;;;;30.41;57.75;100925.22;5011575;28;69912;-40
2022/10/05 12:56:08;;;;;;;5.82;2.42;;;;;;;30.43;57.36;100928.56;5014186;28;66363;-40
2022/10/05 12:58:57;;;;;;;3.33;2.95;;;;;;;30.37;57.19;100930.25;5017873;28;69296;-40
2022/10/05 13:01:53;;;;;;;2.75;2.55;;;;;;;30.31;56.90;100935.66;5002993;28;65000;-40
2022/10/05 13:04:39;;;;;;;2.95;2.72;;;;;;;30.35;56.35;100939.63;5021227;28;70397;-39